Time;durP1;ratioP1;P1;durP2;ratioP2;P2;SDS_P1;SDS_P2;PMS_P1;PMS_P2;Temp;Humidity;BMP_temperature;BMP_pressure;BME280_temperature;BME280_humidity;BME280_pressure;Samples;Min_cycle;Max_cycle;Signal;HPM_P1;HPM_P2
2023/08/31 00:01:32;;;;;;;4.38;2.20;;;;;;;11.82;100.00;100578.66;4948166;28;20086;-67
2023/08/31 00:03:59;;;;;;;3.97;2.10;;;;;;;11.79;100.00;100578.19;4947332;28;20085;-67
2023/08/31 00:06:25;;;;;;;5.68;2.55;;;;;;;11.76;100.00;100579.34;4960887;28;20049;-67
2023/08/31 00:08:50;;;;;;;8.60;2.65;;;;;;;11.74;100.00;100581.31;4964550;28;20441;-67
2023/08/31 00:11:16;;;;;;;6.35;3.33;;;;;;;11.72;100.00;100587.66;4966092;28;20031;-67
2023/08/31 00:13:42;;;;;;;4.95;2.30;;;;;;;11.70;100.00;100585.22;4953052;28;20433;-67
2023/08/31 00:16:09;;;;;;;5.13;2.95;;;;;;;11.69;100.00;100578.38;4950082;28;21135;-67
2023/08/31 00:18:35;;;;;;;3.80;2.20;;;;;;;11.67;100.00;100580.34;4970894;28;20033;-67
2023/08/31 00:21:02;;;;;;;6.93;2.75;;;;;;;11.66;100.00;100581.34;4971050;28;20035;-67
2023/08/31 00:23:28;;;;;;;11.55;2.78;;;;;;;11.60;100.00;100566.41;4969769;28;20066;-67
2023/08/31 00:25:53;;;;;;;4.85;2.58;;;;;;;11.58;100.00;100576.97;4935422;28;20054;-67
2023/08/31 00:28:19;;;;;;;7.22;2.92;;;;;;;11.57;100.00;100574.56;4968956;28;20089;-66
2023/08/31 00:30:45;;;;;;;7.57;2.60;;;;;;;11.55;100.00;100579.91;4967046;28;20031;-67
2023/08/31 00:33:12;;;;;;;4.32;2.25;;;;;;;11.52;100.00;100569.84;4950062;28;20030;-67
2023/08/31 00:35:43;;;;;;;9.82;2.88;;;;;;;11.51;100.00;100573.44;4962941;28;20378;-66
2023/08/31 00:38:09;;;;;;;5.90;2.85;;;;;;;11.50;100.00;100567.41;4951947;28;20126;-67
2023/08/31 00:40:40;;;;;;;4.75;2.75;;;;;;;11.45;100.00;100571.50;4968516;28;20157;-68
2023/08/31 00:43:07;;;;;;;6.82;2.78;;;;;;;11.43;100.00;100566.50;4952043;28;20070;-67
2023/08/31 00:45:33;;;;;;;5.10;2.97;;;;;;;11.37;100.00;100567.13;4948953;28;20397;-68
2023/08/31 00:47:58;;;;;;;8.18;3.40;;;;;;;11.35;100.00;100566.50;4953933;28;20057;-67
2023/08/31 00:50:25;;;;;;;8.48;3.20;;;;;;;11.33;100.00;100567.66;4955593;28;20023;-66
2023/08/31 00:52:50;;;;;;;8.07;3.15;;;;;;;11.34;100.00;100566.66;4947898;28;20038;-67
2023/08/31 00:55:17;;;;;;;6.68;3.17;;;;;;;11.29;100.00;100567.16;4950129;28;20085;-67
2023/08/31 00:57:44;;;;;;;8.38;3.28;;;;;;;11.27;100.00;100561.34;4963649;28;20126;-66
2023/08/31 01:00:10;;;;;;;8.13;3.00;;;;;;;11.28;100.00;100566.38;4965545;28;20515;-67
2023/08/31 01:03:05;;;;;;;6.50;3.00;;;;;;;11.29;100.00;100569.75;4952467;28;20854;-66
2023/08/31 01:05:52;;;;;;;8.13;3.20;;;;;;;11.33;100.00;100568.44;4966300;28;20101;-67
2023/08/31 01:08:40;;;;;;;5.15;2.72;;;;;;;11.29;100.00;100557.59;4937370;28;20039;-66
2023/08/31 01:11:21;;;;;;;6.00;2.78;;;;;;;11.30;100.00;100572.19;4951393;28;20121;-67
2023/08/31 01:14:03;;;;;;;5.50;2.80;;;;;;;11.23;100.00;100560.06;4954668;28;20508;-67
2023/08/31 01:16:33;;;;;;;8.75;3.00;;;;;;;11.21;100.00;100562.00;4952196;28;20050;-67
2023/08/31 01:19:05;;;;;;;4.78;2.65;;;;;;;11.26;100.00;100560.53;4950565;28;20031;-67
2023/08/31 01:21:37;;;;;;;7.03;3.13;;;;;;;11.20;100.00;100573.34;4963067;28;20042;-67
2023/08/31 01:24:04;;;;;;;7.55;3.10;;;;;;;11.23;100.00;100566.03;4948404;28;20054;-66
2023/08/31 01:26:32;;;;;;;5.90;3.17;;;;;;;11.20;100.00;100570.75;4941761;28;20053;-67
2023/08/31 01:28:59;;;;;;;4.18;2.42;;;;;;;11.12;100.00;100568.19;4967842;28;20137;-67
2023/08/31 01:31:24;;;;;;;10.57;3.22;;;;;;;11.10;100.00;100569.13;4966154;28;20031;-66
2023/08/31 01:33:51;;;;;;;4.20;2.90;;;;;;;11.04;100.00;100566.41;4969803;28;20059;-67
2023/08/31 01:36:29;;;;;;;7.85;2.60;;;;;;;10.99;100.00;100566.09;4965989;28;20031;-67
2023/08/31 01:39:10;;;;;;;4.57;2.78;;;;;;;10.97;100.00;100563.66;4967745;28;20042;-66
2023/08/31 01:41:44;;;;;;;6.68;2.30;;;;;;;10.97;100.00;100568.84;4938464;28;20042;-67
2023/08/31 01:44:16;;;;;;;7.70;2.70;;;;;;;10.96;100.00;100569.78;4965181;28;20038;-67
2023/08/31 01:46:46;;;;;;;4.72;2.25;;;;;;;10.95;100.00;100568.19;4969330;28;20126;-67
2023/08/31 01:49:11;;;;;;;9.23;2.58;;;;;;;10.94;100.00;100571.75;4969968;28;20125;-67
2023/08/31 01:51:37;;;;;;;6.60;2.38;;;;;;;10.93;100.00;100566.75;4950856;28;20308;-66
2023/08/31 01:54:03;;;;;;;5.10;2.55;;;;;;;10.90;100.00;100567.88;4950198;28;20039;-67
2023/08/31 01:56:28;;;;;;;6.70;2.65;;;;;;;10.93;100.00;100577.13;4966025;28;20544;-67
2023/08/31 01:58:54;;;;;;;6.78;2.80;;;;;;;10.92;100.00;100578.88;4968618;28;20489;-67
2023/08/31 02:01:20;;;;;;;7.18;2.75;;;;;;;10.89;100.00;100582.63;4946194;28;20049;-67
2023/08/31 02:03:45;;;;;;;5.47;2.70;;;;;;;10.88;100.00;100583.59;4966907;28;20513;-67
2023/08/31 02:06:11;;;;;;;6.53;2.67;;;;;;;10.93;100.00;100587.50;4952207;28;20113;-67
2023/08/31 02:08:39;;;;;;;4.82;2.42;;;;;;;10.94;100.00;100589.91;4952138;28;20509;-67
2023/08/31 02:11:04;;;;;;;6.63;2.55;;;;;;;10.89;100.00;100592.19;4936806;28;20038;-66
2023/08/31 02:13:30;;;;;;;10.50;2.38;;;;;;;10.93;100.00;100597.88;4949244;28;20031;-67
2023/08/31 02:15:55;;;;;;;3.88;2.15;;;;;;;10.88;100.00;100590.56;4966888;28;20042;-68
2023/08/31 02:18:21;;;;;;;5.60;2.55;;;;;;;10.87;100.00;100591.56;4945977;28;20027;-67
2023/08/31 02:20:47;;;;;;;13.38;2.67;;;;;;;10.89;100.00;100594.78;4964041;28;20038;-67
2023/08/31 02:23:13;;;;;;;4.93;2.38;;;;;;;10.83;100.00;100603.22;4967001;28;20437;-67
2023/08/31 02:25:38;;;;;;;5.82;2.30;;;;;;;10.84;100.00;100594.47;4966525;28;20042;-68
2023/08/31 02:28:04;;;;;;;4.10;2.17;;;;;;;10.83;100.00;100601.44;4956532;28;20489;-67
2023/08/31 02:30:30;;;;;;;5.10;1.92;;;;;;;10.84;100.00;100594.47;4964081;28;20121;-67
2023/08/31 02:32:56;;;;;;;7.22;3.40;;;;;;;10.81;100.00;100600.81;4955097;28;20102;-67
2023/08/31 02:35:22;;;;;;;4.97;2.47;;;;;;;10.80;100.00;100599.16;4948456;28;20763;-67
2023/08/31 02:37:48;;;;;;;5.82;1.83;;;;;;;10.76;100.00;100603.06;4949422;28;20141;-67
2023/08/31 02:40:13;;;;;;;3.63;2.03;;;;;;;10.82;100.00;100599.81;4966826;28;20485;-66
2023/08/31 02:42:39;;;;;;;4.10;2.03;;;;;;;10.77;100.00;100606.47;4948464;28;20031;-67
2023/08/31 02:45:05;;;;;;;6.32;2.60;;;;;;;10.76;100.00;100600.47;4966051;28;20039;-67
2023/08/31 02:47:31;;;;;;;5.63;2.10;;;;;;;10.78;100.00;100600.31;4949449;28;20046;-66
2023/08/31 02:49:56;;;;;;;4.45;2.05;;;;;;;10.78;100.00;100603.72;4968186;28;20042;-67
2023/08/31 02:52:22;;;;;;;6.57;2.20;;;;;;;10.74;100.00;100598.97;4952851;28;20051;-67
2023/08/31 02:54:47;;;;;;;5.63;1.83;;;;;;;10.71;100.00;100598.34;4946513;28;20038;-67
2023/08/31 02:57:15;;;;;;;3.50;1.80;;;;;;;10.66;100.00;100598.03;4949825;28;20109;-67
2023/08/31 02:59:42;;;;;;;4.32;1.80;;;;;;;10.73;100.00;100597.38;4948652;28;20034;-67
2023/08/31 03:02:08;;;;;;;4.25;2.15;;;;;;;10.70;100.00;100599.31;4962224;28;20109;-66
2023/08/31 03:04:34;;;;;;;3.05;2.10;;;;;;;10.66;100.00;100594.63;4949762;28;20093;-66
2023/08/31 03:07:00;;;;;;;3.78;1.75;;;;;;;10.61;100.00;100591.72;4952288;28;20069;-66
2023/08/31 03:09:25;;;;;;;4.80;2.20;;;;;;;10.60;100.00;100596.06;4933673;28;20085;-67
2023/08/31 03:11:51;;;;;;;6.03;1.90;;;;;;;10.59;100.00;100598.84;4948811;28;20039;-67
2023/08/31 03:14:16;;;;;;;7.25;3.08;;;;;;;10.58;100.00;100595.41;4957090;28;20516;-67
2023/08/31 03:16:42;;;;;;;3.83;2.60;;;;;;;10.58;100.00;100600.59;4947758;28;20035;-67
2023/08/31 03:19:07;;;;;;;4.80;2.60;;;;;;;10.60;100.00;100600.44;4964382;28;20038;-67
2023/08/31 03:21:33;;;;;;;7.03;2.72;;;;;;;10.59;100.00;100599.66;4948630;28;20035;-67
2023/08/31 03:23:59;;;;;;;3.50;2.00;;;;;;;10.53;100.00;100602.88;4960759;28;20217;-67
2023/08/31 03:26:25;;;;;;;6.15;2.85;;;;;;;10.56;100.00;100601.75;4953656;28;21380;-67
2023/08/31 03:28:50;;;;;;;4.75;2.60;;;;;;;10.52;100.00;100604.66;4947341;28;20030;-67
2023/08/31 03:31:16;;;;;;;8.13;2.67;;;;;;;10.54;100.00;100595.91;4972154;28;20030;-67
2023/08/31 03:33:42;;;;;;;7.03;2.65;;;;;;;10.61;100.00;100605.47;4975009;28;20027;-67
2023/08/31 03:36:08;;;;;;;6.95;2.55;;;;;;;10.58;100.00;100599.81;4959539;28;20049;-67
2023/08/31 03:38:37;;;;;;;7.05;2.70;;;;;;;10.58;100.00;100599.81;4956702;28;20032;-67
2023/08/31 03:41:03;;;;;;;4.00;2.83;;;;;;;10.50;100.00;100603.19;4956512;28;20461;-67
2023/08/31 03:43:29;;;;;;;4.82;2.45;;;;;;;10.47;100.00;100598.31;4966169;28;20027;-67
2023/08/31 03:45:56;;;;;;;4.88;2.80;;;;;;;10.48;100.00;100605.94;4948801;28;20150;-67
2023/08/31 03:48:25;;;;;;;4.78;2.60;;;;;;;10.45;100.00;100608.03;4967141;28;20022;-67
2023/08/31 03:50:55;;;;;;;6.20;3.00;;;;;;;10.42;100.00;100613.56;4947615;28;20049;-67
2023/08/31 03:53:21;;;;;;;5.07;2.97;;;;;;;10.39;100.00;100598.31;4948326;28;20668;-67
2023/08/31 03:55:48;;;;;;;5.03;2.70;;;;;;;10.39;100.00;100601.72;4968201;28;20097;-66
2023/08/31 03:58:14;;;;;;;4.90;2.97;;;;;;;10.42;100.00;100608.38;4969042;28;20026;-67
2023/08/31 04:00:42;;;;;;;6.63;2.88;;;;;;;10.41;100.00;100604.16;4936212;28;20374;-68
2023/08/31 04:03:09;;;;;;;13.48;2.67;;;;;;;10.42;100.00;100604.00;4971553;28;20033;-66
2023/08/31 04:05:35;;;;;;;4.50;2.72;;;;;;;10.42;100.00;100610.97;4970286;28;20501;-67
2023/08/31 04:08:02;;;;;;;5.05;2.83;;;;;;;10.40;100.00;100607.72;4969132;28;20034;-67
2023/08/31 04:10:29;;;;;;;7.82;3.22;;;;;;;10.43;100.00;100607.38;4953653;28;20136;-67
2023/08/31 04:12:55;;;;;;;4.43;2.90;;;;;;;10.40;100.00;100618.91;4952896;28;20059;-67
2023/08/31 04:15:21;;;;;;;8.50;3.30;;;;;;;10.44;100.00;100627.19;4967206;28;20120;-66
2023/08/31 04:17:46;;;;;;;7.90;2.92;;;;;;;10.39;100.00;100624.25;4948136;28;20043;-67
2023/08/31 04:20:12;;;;;;;8.50;3.47;;;;;;;10.38;100.00;100622.59;4953423;28;20085;-67
2023/08/31 04:22:38;;;;;;;5.47;3.40;;;;;;;10.35;100.00;100620.34;4935523;28;20043;-66
2023/08/31 04:25:03;;;;;;;7.40;3.13;;;;;;;10.32;100.00;100624.03;4965748;28;20046;-66
2023/08/31 04:27:32;;;;;;;6.95;3.10;;;;;;;10.37;100.00;100619.22;4963943;28;20039;-67
2023/08/31 04:30:01;;;;;;;4.25;3.17;;;;;;;10.33;100.00;100617.91;4968130;28;20607;-67
2023/08/31 04:32:26;;;;;;;6.57;3.70;;;;;;;10.43;100.00;100622.94;4948554;28;20036;-67
2023/08/31 04:34:52;;;;;;;8.77;4.18;;;;;;;10.37;100.00;100623.59;4971786;28;20060;-67
2023/08/31 04:37:18;;;;;;;7.00;3.92;;;;;;;10.38;100.00;100630.38;4966728;28;20039;-67
2023/08/31 04:39:43;;;;;;;6.07;3.40;;;;;;;10.33;100.00;100629.06;4951352;28;20034;-67
2023/08/31 04:42:09;;;;;;;6.35;4.35;;;;;;;10.32;100.00;100637.00;4966339;28;20042;-66
2023/08/31 04:44:35;;;;;;;6.25;4.10;;;;;;;10.33;100.00;100629.06;4967911;28;20035;-69
2023/08/31 04:47:00;;;;;;;5.97;3.85;;;;;;;10.32;100.00;100639.59;4967749;28;20046;-66
2023/08/31 04:49:26;;;;;;;4.95;3.70;;;;;;;10.31;100.00;100640.59;4968289;28;20520;-66
2023/08/31 04:51:52;;;;;;;7.25;4.10;;;;;;;10.32;100.00;100642.19;4955687;28;20130;-66
2023/08/31 04:54:18;;;;;;;8.00;4.53;;;;;;;10.30;100.00;100644.97;4970619;28;20040;-66
2023/08/31 04:56:43;;;;;;;8.18;4.50;;;;;;;10.35;100.00;100656.63;4969062;28;20123;-66
2023/08/31 04:59:09;;;;;;;12.32;4.53;;;;;;;10.36;100.00;100651.31;4951367;28;20030;-66
2023/08/31 05:01:34;;;;;;;14.57;4.80;;;;;;;10.38;100.00;100661.47;4964274;28;20113;-67
2023/08/31 05:04:00;;;;;;;8.32;4.88;;;;;;;10.39;100.00;100657.94;4950636;28;20026;-67
2023/08/31 05:06:26;;;;;;;5.97;4.47;;;;;;;10.35;100.00;100654.03;4966913;28;20045;-66
2023/08/31 05:08:51;;;;;;;8.13;4.72;;;;;;;10.30;100.00;100670.88;4973659;28;20053;-66
2023/08/31 05:11:17;;;;;;;10.15;5.40;;;;;;;10.37;100.00;100667.66;4942992;28;20038;-66
2023/08/31 05:13:42;;;;;;;9.50;4.78;;;;;;;10.39;100.00;100666.50;4968422;28;20034;-66
2023/08/31 05:16:08;;;;;;;9.75;5.47;;;;;;;10.48;100.00;100667.34;4968363;28;20034;-67
2023/08/31 05:18:34;;;;;;;10.55;5.00;;;;;;;10.41;100.00;100677.53;4970509;28;20039;-67
2023/08/31 05:20:59;;;;;;;8.80;4.95;;;;;;;10.39;100.00;100679.47;4968708;28;20508;-66
2023/08/31 05:23:25;;;;;;;8.68;5.45;;;;;;;10.36;100.00;100687.59;4969744;28;20034;-66
2023/08/31 05:25:51;;;;;;;7.05;5.10;;;;;;;10.38;100.00;100690.00;4952585;28;20043;-66
2023/08/31 05:28:16;;;;;;;7.63;5.07;;;;;;;10.40;100.00;100694.06;4968153;28;20038;-66
2023/08/31 05:30:52;;;;;;;9.88;5.88;;;;;;;10.48;100.00;100686.31;4961115;28;20027;-67
2023/08/31 05:33:18;;;;;;;8.63;4.88;;;;;;;10.45;100.00;100684.06;4964086;28;20031;-66
2023/08/31 05:35:44;;;;;;;8.75;5.18;;;;;;;10.44;100.00;100691.97;4951906;28;20050;-67
2023/08/31 05:38:10;;;;;;;15.50;5.65;;;;;;;10.47;100.00;100689.06;4968033;28;20062;-66
2023/08/31 05:40:36;;;;;;;10.23;5.45;;;;;;;10.47;100.00;100697.66;4949439;28;20674;-67
2023/08/31 05:43:02;;;;;;;10.98;6.05;;;;;;;10.56;100.00;100695.09;4949957;28;20618;-66
2023/08/31 05:45:32;;;;;;;11.50;5.80;;;;;;;10.68;100.00;100698.97;4968326;28;20039;-66
2023/08/31 05:47:57;;;;;;;14.20;5.70;;;;;;;10.62;100.00;100699.63;4963289;28;20093;-66
2023/08/31 05:50:23;;;;;;;11.38;6.20;;;;;;;10.60;100.00;100698.97;4970735;28;20045;-66
2023/08/31 05:52:48;;;;;;;13.75;5.80;;;;;;;10.77;100.00;100703.22;4962470;28;20036;-66
2023/08/31 05:55:14;;;;;;;13.48;5.68;;;;;;;10.78;100.00;100704.06;4983105;28;20026;-66
2023/08/31 05:57:39;;;;;;;12.27;5.70;;;;;;;10.77;100.00;100708.41;4951872;28;20047;-66
2023/08/31 06:00:08;;;;;;;10.45;5.47;;;;;;;10.84;100.00;100711.19;4952743;28;20047;-66
2023/08/31 06:02:38;;;;;;;;;;;;;;;10.86;100.00;100710.03;4962480;28;20038;-66
2023/08/31 06:05:04;;;;;;;8.50;4.70;;;;;;;10.88;100.00;100702.13;4968532;28;19918;-66
2023/08/31 06:07:29;;;;;;;9.65;5.57;;;;;;;10.91;100.00;100707.78;4950926;28;20401;-66
2023/08/31 06:09:56;;;;;;;10.43;5.18;;;;;;;10.98;100.00;100710.56;4965858;28;20035;-66
2023/08/31 06:12:22;;;;;;;15.80;5.70;;;;;;;11.02;100.00;100708.44;4965150;28;20031;-66
2023/08/31 06:14:47;;;;;;;11.55;6.07;;;;;;;11.10;100.00;100719.66;4966864;28;20043;-66
2023/08/31 06:17:13;;;;;;;9.65;5.93;;;;;;;11.08;100.00;100724.19;4971391;28;20046;-66
2023/08/31 06:19:39;;;;;;;10.02;5.93;;;;;;;11.20;100.00;100716.88;4967255;28;20046;-66
2023/08/31 06:22:05;;;;;;;8.90;5.85;;;;;;;11.19;100.00;100722.25;4962469;28;20047;-66
2023/08/31 06:24:32;;;;;;;11.65;4.72;;;;;;;11.20;100.00;100727.28;4950390;28;20393;-66
2023/08/31 06:26:57;;;;;;;10.38;5.10;;;;;;;11.27;100.00;100725.66;4966627;28;20038;-66
2023/08/31 06:29:23;;;;;;;13.75;5.10;;;;;;;11.43;100.00;100726.63;4971033;28;20030;-66
2023/08/31 06:31:48;;;;;;;8.93;5.40;;;;;;;11.52;100.00;100727.44;4980542;28;20405;-67
2023/08/31 06:34:14;;;;;;;9.13;4.70;;;;;;;11.57;100.00;100728.56;4946081;28;20031;-67
2023/08/31 06:36:39;;;;;;;10.88;4.78;;;;;;;11.62;100.00;100723.72;4960929;28;20042;-66
2023/08/31 06:39:06;;;;;;;12.10;4.95;;;;;;;11.68;100.00;100730.03;4957404;28;20035;-67
2023/08/31 06:41:32;;;;;;;9.20;5.05;;;;;;;11.74;100.00;100724.16;4973897;28;20033;-67
2023/08/31 06:43:57;;;;;;;10.23;4.70;;;;;;;11.95;100.00;100720.25;4999582;23;20046;-72
2023/08/31 06:46:23;;;;;;;9.10;4.70;;;;;;;12.12;100.00;100726.22;4971485;28;20034;-72
2023/08/31 06:48:48;;;;;;;25.92;12.52;;;;;;;12.32;100.00;100724.00;4970043;28;20041;-71
2023/08/31 06:51:15;;;;;;;9.27;4.40;;;;;;;12.44;100.00;100728.66;4956373;28;20038;-72
2023/08/31 06:53:43;;;;;;;14.18;4.60;;;;;;;12.71;100.00;100728.38;4999493;28;20033;-72
2023/08/31 06:56:08;;;;;;;10.25;4.55;;;;;;;12.99;100.00;100732.09;5011126;28;20056;-72
2023/08/31 06:58:34;;;;;;;6.72;4.00;;;;;;;13.31;100.00;100721.66;4990956;28;20030;-72
2023/08/31 07:01:00;;;;;;;6.20;3.63;;;;;;;13.87;100.00;100726.50;4988495;28;20500;-71
2023/08/31 07:03:25;;;;;;;8.43;3.38;;;;;;;14.66;99.21;100736.34;5007269;28;20045;-72
2023/08/31 07:05:51;;;;;;;8.30;2.83;;;;;;;15.45;93.57;100733.66;5004478;28;20520;-72
2023/08/31 07:08:16;;;;;;;7.05;2.70;;;;;;;16.06;90.18;100727.81;4974686;28;20033;-72
2023/08/31 07:10:42;;;;;;;6.30;3.08;;;;;;;16.54;85.95;100730.44;4988081;28;20037;-72
2023/08/31 07:13:07;;;;;;;5.55;2.60;;;;;;;16.70;84.53;100737.09;4987906;28;20519;-72
2023/08/31 07:15:33;;;;;;;6.80;2.45;;;;;;;17.23;81.93;100727.75;4991555;28;20463;-71
2023/08/31 07:17:59;;;;;;;6.07;2.60;;;;;;;17.72;80.34;100731.72;4989324;28;20034;-72
2023/08/31 07:20:24;;;;;;;7.45;2.20;;;;;;;18.02;79.80;100729.47;4990489;28;20033;-73
2023/08/31 07:22:50;;;;;;;4.95;2.03;;;;;;;18.33;75.93;100740.25;4986728;28;20034;-72
2023/08/31 07:25:15;;;;;;;8.18;2.78;;;;;;;18.62;74.60;100738.91;4982146;28;20045;-72
2023/08/31 07:27:41;;;;;;;10.90;2.42;;;;;;;18.94;73.35;100731.88;4989914;28;20042;-72
2023/08/31 07:30:07;;;;;;;4.45;2.15;;;;;;;19.04;72.96;100747.16;4987289;28;20441;-72
2023/08/31 07:32:32;;;;;;;4.30;2.00;;;;;;;19.32;72.24;100753.81;5003700;28;20109;-72
2023/08/31 07:34:58;;;;;;;3.83;2.08;;;;;;;19.25;71.22;100752.06;4989870;28;20427;-72
2023/08/31 07:37:24;;;;;;;6.07;2.30;;;;;;;19.39;70.79;100744.06;5006495;28;20062;-72
2023/08/31 07:39:49;;;;;;;6.68;1.92;;;;;;;19.41;70.15;100749.91;4975347;28;20496;-72
2023/08/31 07:42:15;;;;;;;9.13;2.10;;;;;;;19.67;69.99;100753.34;5005358;28;20033;-72
2023/08/31 07:44:41;;;;;;;2.95;1.58;;;;;;;19.86;69.31;100752.34;5007651;28;20034;-73
2023/08/31 07:47:07;;;;;;;4.00;1.98;;;;;;;19.86;67.83;100751.56;4974366;28;20038;-72
2023/08/31 07:49:33;;;;;;;4.25;2.15;;;;;;;20.07;67.82;100751.09;4988512;28;20037;-73
2023/08/31 07:51:59;;;;;;;5.13;2.20;;;;;;;19.76;68.42;100752.84;4985147;28;20037;-72
2023/08/31 07:54:25;;;;;;;6.47;2.22;;;;;;;19.96;67.70;100752.63;4989411;28;20407;-73
2023/08/31 07:56:51;;;;;;;6.20;1.70;;;;;;;20.22;66.71;100756.00;5003125;28;20428;-72
2023/08/31 07:59:17;;;;;;;5.18;1.70;;;;;;;20.70;66.35;100747.31;5005946;28;20038;-73
2023/08/31 08:01:43;;;;;;;6.05;1.92;;;;;;;20.65;65.25;100749.81;4987731;28;20038;-72
2023/08/31 08:04:11;;;;;;;4.40;1.90;;;;;;;20.76;64.11;100759.59;5007383;28;20087;-73
2023/08/31 08:06:36;;;;;;;6.72;2.10;;;;;;;20.42;65.25;100756.56;4973755;28;20962;-73
2023/08/31 08:09:02;;;;;;;5.55;1.70;;;;;;;20.94;65.01;100753.44;4990594;28;20030;-73
2023/08/31 08:11:28;;;;;;;5.35;2.17;;;;;;;21.07;64.01;100749.00;5008257;28;20808;-73
2023/08/31 08:13:53;;;;;;;5.28;2.15;;;;;;;21.09;62.16;100757.47;4990894;28;20052;-72
2023/08/31 08:16:19;;;;;;;5.45;1.85;;;;;;;21.02;64.75;100754.13;5002846;28;20511;-72
2023/08/31 08:18:44;;;;;;;4.75;1.50;;;;;;;21.42;63.28;100766.66;4989686;28;20030;-72
2023/08/31 08:21:10;;;;;;;7.65;1.70;;;;;;;21.75;62.54;100756.38;4986741;28;20041;-73
2023/08/31 08:23:35;;;;;;;6.88;1.98;;;;;;;21.75;62.09;100756.38;5006815;28;20088;-73
2023/08/31 08:26:01;;;;;;;5.38;1.50;;;;;;;21.79;61.71;100759.34;5007005;28;20058;-72
2023/08/31 08:28:26;;;;;;;5.03;1.80;;;;;;;21.64;60.32;100761.66;5007457;28;20038;-73
2023/08/31 08:30:52;;;;;;;10.90;2.53;;;;;;;21.10;62.35;100757.25;5006288;28;20056;-72
2023/08/31 08:33:17;;;;;;;7.68;1.88;;;;;;;21.32;61.90;100767.25;5001573;28;20022;-72
2023/08/31 08:35:43;;;;;;;5.63;1.48;;;;;;;21.00;62.12;100759.63;5004994;28;20033;-72
2023/08/31 08:38:08;;;;;;;4.22;1.45;;;;;;;21.67;59.99;100764.66;4987418;28;20026;-72
2023/08/31 08:40:35;;;;;;;3.38;1.30;;;;;;;21.88;59.67;100762.44;4992532;28;20037;-72
2023/08/31 08:43:01;;;;;;;7.53;2.28;;;;;;;21.72;59.10;100766.63;4978970;28;20034;-73
2023/08/31 08:45:36;;;;;;;4.07;1.90;;;;;;;21.83;58.50;100764.97;5008449;28;20157;-72
2023/08/31 08:48:04;;;;;;;4.10;1.52;;;;;;;22.06;59.13;100764.16;5008499;28;20034;-72
2023/08/31 08:50:33;;;;;;;4.60;1.23;;;;;;;22.17;58.38;100769.41;5011365;28;20100;-72
2023/08/31 08:53:02;;;;;;;4.50;1.60;;;;;;;21.81;59.85;100769.69;5009391;28;20082;-72
2023/08/31 08:55:28;;;;;;;2.88;1.63;;;;;;;21.99;58.03;100777.47;5011315;28;20056;-72
2023/08/31 08:57:53;;;;;;;4.38;2.60;;;;;;;21.52;59.74;100778.31;4991820;28;20107;-72
2023/08/31 09:00:19;;;;;;;5.68;1.95;;;;;;;21.82;58.77;100772.09;5010279;28;20034;-72
2023/08/31 09:02:45;;;;;;;8.52;1.83;;;;;;;22.04;58.05;100780.22;4992138;28;20042;-72
2023/08/31 09:05:11;;;;;;;4.60;2.22;;;;;;;22.41;56.82;100785.19;5009408;28;20038;-72
2023/08/31 09:07:37;;;;;;;4.18;1.30;;;;;;;22.44;57.56;100779.44;4974727;28;20047;-72
2023/08/31 09:10:04;;;;;;;6.28;2.15;;;;;;;21.99;57.54;100782.75;5007691;28;20107;-73
2023/08/31 09:12:29;;;;;;;3.55;1.63;;;;;;;22.15;56.15;100791.78;4988177;28;20045;-72
2023/08/31 09:14:59;;;;;;;5.47;1.80;;;;;;;22.35;57.07;100780.84;4991186;28;20030;-72
2023/08/31 09:17:27;;;;;;;4.78;1.50;;;;;;;22.17;58.45;100787.09;4988111;28;20407;-72
2023/08/31 09:20:00;;;;;;;7.93;1.80;;;;;;;21.78;57.88;100795.50;4990578;28;20038;-73
2023/08/31 09:22:26;;;;;;;6.13;1.95;;;;;;;21.84;58.02;100788.50;5007154;28;20034;-72
2023/08/31 09:24:51;;;;;;;7.13;2.00;;;;;;;22.03;57.10;100780.44;4990923;28;20847;-72
2023/08/31 09:27:20;;;;;;;6.25;1.60;;;;;;;22.27;57.95;100786.50;4995793;28;20042;-72
2023/08/31 09:29:46;;;;;;;4.82;1.52;;;;;;;22.42;57.36;100794.72;5008624;28;20041;-72
2023/08/31 09:32:18;;;;;;;5.13;1.70;;;;;;;22.57;59.23;100790.78;4990628;28;20065;-72
2023/08/31 09:34:45;;;;;;;6.32;1.80;;;;;;;22.43;57.45;100787.59;4986809;28;20372;-72
2023/08/31 09:37:11;;;;;;;7.82;1.60;;;;;;;22.46;57.88;100780.00;5009469;28;20124;-72
2023/08/31 09:39:37;;;;;;;8.85;2.45;;;;;;;21.60;61.16;100794.81;5005104;28;20026;-72
2023/08/31 09:42:03;;;;;;;5.82;1.48;;;;;;;20.99;62.20;100792.31;4991384;28;20571;-73
2023/08/31 09:44:28;;;;;;;4.82;1.70;;;;;;;20.53;62.33;100794.50;5007448;28;20034;-72
2023/08/31 09:46:55;;;;;;;6.25;2.22;;;;;;;20.77;62.55;100798.06;5008743;28;20041;-72
2023/08/31 09:49:21;;;;;;;7.40;1.83;;;;;;;21.20;61.53;100802.31;5007528;28;20084;-73
2023/08/31 09:51:49;;;;;;;3.92;1.40;;;;;;;21.72;61.10;100793.00;4991648;28;20702;-72
2023/08/31 09:54:17;;;;;;;5.40;1.33;;;;;;;21.99;60.32;100792.50;5010314;28;20480;-72
2023/08/31 09:56:43;;;;;;;5.68;1.52;;;;;;;22.04;60.91;100790.78;5005789;28;20033;-72
2023/08/31 09:59:14;;;;;;;7.70;2.10;;;;;;;22.22;58.05;100781.88;4991001;28;20037;-73
2023/08/31 10:01:40;;;;;;;5.82;2.17;;;;;;;21.67;59.35;100785.75;5005017;28;20034;-72
2023/08/31 10:04:08;;;;;;;7.82;2.00;;;;;;;20.81;59.47;100793.16;5006662;28;20080;-73
2023/08/31 10:06:39;;;;;;;8.65;1.88;;;;;;;20.55;62.33;100800.34;4987352;28;20129;-72
2023/08/31 10:09:05;;;;;;;6.53;1.80;;;;;;;20.58;63.50;100797.25;5007039;28;20034;-72
2023/08/31 10:11:31;;;;;;;5.57;1.67;;;;;;;20.87;63.76;100791.44;5009178;28;20045;-72
2023/08/31 10:13:58;;;;;;;5.45;1.42;;;;;;;21.10;61.80;100799.44;5009422;28;20034;-72
2023/08/31 10:16:25;;;;;;;6.75;1.55;;;;;;;21.50;61.33;100793.56;4991101;28;20184;-72
2023/08/31 10:18:51;;;;;;;5.15;1.50;;;;;;;21.62;60.78;100793.56;4993792;28;20092;-72
2023/08/31 10:21:18;;;;;;;3.85;1.83;;;;;;;21.99;61.09;100792.50;4985629;28;20038;-73
2023/08/31 10:23:45;;;;;;;6.20;1.95;;;;;;;22.01;59.67;100793.88;5007891;28;20025;-72
2023/08/31 10:26:10;;;;;;;8.02;2.10;;;;;;;21.71;58.18;100800.09;5003098;28;20064;-72
2023/08/31 10:28:41;;;;;;;5.78;1.70;;;;;;;21.37;59.45;100799.03;4974877;28;20030;-72
2023/08/31 10:31:09;;;;;;;5.05;1.60;;;;;;;21.16;59.57;100806.44;4969877;28;20044;-72
2023/08/31 10:33:39;;;;;;;7.22;1.90;;;;;;;20.95;61.41;100810.38;4987541;28;20037;-72
2023/08/31 10:36:10;;;;;;;7.03;1.58;;;;;;;20.79;63.15;100803.09;4987181;28;20042;-72
2023/08/31 10:38:35;;;;;;;9.07;2.25;;;;;;;20.66;62.43;100804.09;4972882;28;20026;-72
2023/08/31 10:41:06;;;;;;;4.13;1.60;;;;;;;20.59;64.26;100803.34;4988504;28;20522;-72
2023/08/31 10:43:57;;;;;;;4.72;1.40;;;;;;;20.88;63.43;100809.69;5008397;28;20500;-72
2023/08/31 10:46:39;;;;;;;5.00;1.50;;;;;;;21.09;62.26;100797.03;4987741;28;20080;-72
2023/08/31 10:49:11;;;;;;;4.47;2.13;;;;;;;21.31;59.07;100797.28;4990317;28;20034;-72
2023/08/31 10:51:57;;;;;;;5.05;1.30;;;;;;;20.93;58.03;100795.84;5003941;28;20045;-72
2023/08/31 10:54:35;;;;;;;10.65;1.83;;;;;;;20.85;59.92;100794.34;5004171;28;20034;-72
2023/08/31 10:57:06;;;;;;;6.47;1.60;;;;;;;20.47;59.53;100792.75;5007641;28;20038;-73
2023/08/31 10:59:50;;;;;;;4.03;1.40;;;;;;;20.60;61.92;100792.59;5003787;28;20030;-72
2023/08/31 11:02:43;;;;;;;4.28;1.77;;;;;;;20.93;60.43;100791.38;4969611;28;20104;-72
2023/08/31 11:05:16;;;;;;;5.75;1.70;;;;;;;21.23;60.91;100787.88;5007938;28;20045;-72
2023/08/31 11:07:43;;;;;;;4.53;1.65;;;;;;;21.13;59.22;100793.69;4972957;28;20508;-73
2023/08/31 11:10:14;;;;;;;6.55;2.38;;;;;;;21.31;59.50;100787.53;4990031;28;20038;-72
2023/08/31 11:12:41;;;;;;;8.02;2.20;;;;;;;21.41;58.82;100788.81;4971045;28;20596;-72
2023/08/31 11:15:07;;;;;;;4.18;2.33;;;;;;;21.14;61.17;100776.84;4986499;28;20076;-73
2023/08/31 11:17:33;;;;;;;7.80;2.00;;;;;;;21.16;61.92;100769.53;4998987;28;20037;-73
2023/08/31 11:19:59;;;;;;;9.35;2.53;;;;;;;21.20;61.47;100768.03;4985609;28;20037;-72